Ana Sayfa
METAR-TAF:

METAR-TAF

Havaalanları :

Hatay Havalimanı

Antakya, Türkiye

Enlem: 36-21-46N, Boylam: 36-16-56E, yükseklik: 1950 m

Güncel hava durumu gözlemi

Rapor saat 11:50 UTC de 1 saat ve 8 dakika önce yapıldı.
Rüzgar güney/güneybatıdan 19 kt
Sıcaklık 33°C
Nem 53%
Basınç 1005 hPa
Görüş mesafesi 10 km veya daha fazla
1500 m altında bulut yok ve kümülonimbus yok

METAR: LTDA 201150Z 21019KT CAVOK 33/22 Q1005 NOSIG

Saat: 15:58 (12:58 UTC)

Tahmin

Rapor saat 10:40 UTC de 2 saat ve 18 dakika önce yapıldı.
Ayın 20'si saat 12 UTC'den ayın 20'si saat 21 UTC'ye kadar geçerli Tahmin
Rüzgar batı/güneybatıdan 15 kt ve 25 kt'a kadar ani rüzgarlar
Görüş mesafesi 10 km veya daha fazla
1500 m altında bulut yok ve kümülonimbus yok

TAF: LTDA 201040Z 2012/2021 24015G25KT CAVOK

4.000'den fazla havaalanı için hava durumu gözlemleri ve tahminleri (METAR ve TAF raporları).

Kullanılabilir istasyonlar harita üzerinde sarı ve kırmızı noktalarla gösterilir.

İstasyonun adını görmek için fareyi noktanın üzerinde gezdirin.

Sonrasında hava gözlem ve tahminlerini görmek için tıklayın.

Haritayı değiştirmek için: yaklaştırmak için siyah artı işaretli yeşil düğmeye ve uzaklaştırmak için de eksi işaretli düğmeye hızla tıklayın; bitişik haritalar için yeşil okları kullanın.


METAR-TAF: